Flight Track Log - Related Links

Times and Time Zones

All times are in EDT time to prevent confusion due to time zone crossing. See the SWA1031 flight status page for this flight to view local times or setup timezone preferences in your user account.

Time Position Orientation Groundspeed Altitude Reporting Facility
EDT Latitude Longitude Course Direction KTS MPH feet Rate Location/Type
Thu 03:06:55 PM 38.6833 -121.6000 142° Southeast 143 165 800  Level Northern Cal TRACON
Thu 03:07:55 PM 38.6500 -121.5667 142° Southeast 197 227 2,800 2,132 Climbing Northern Cal TRACON
Thu 03:08:56 PM 38.6167 -121.4833 117° Southeast 255 293 5,100 2,579 Climbing Northern Cal TRACON
Thu 03:09:56 PM 38.5667 -121.4000 127° Southeast 292 336 8,000 3,350 Climbing Northern Cal TRACON
Thu 03:10:56 PM 38.5333 -121.3167 117° Southeast 300 345 11,800 3,459 Climbing Northern Cal TRACON
Thu 03:11:21 PM 38.5075 -121.2706 126° Southeast 309 356 12,900 3,103 Climbing Oakland Center
Thu 03:12:23 PM 38.4569 -121.1633 121° Southeast 350 403 16,300 2,976 Climbing Oakland Center
Thu 03:13:24 PM 38.4072 -121.0561 121° Southeast 362 417 19,000 1,951 Climbing Oakland Center
Thu 03:14:26 PM 38.3533 -120.9403 121° Southeast 376 433 20,300 1,951 Climbing Oakland Center
Thu 03:15:27 PM 38.2983 -120.8222 121° Southeast 385 443 23,000 2,488 Climbing Oakland Center
Thu 03:16:29 PM 38.2394 -120.6983 121° Southeast 405 466 25,400 2,390 Climbing Oakland Center
Thu 03:17:30 PM 38.1267 -120.5803 141° Southeast 433 498 27,900 1,854 Climbing Oakland Center
Thu 03:18:32 PM 38.0136 -120.5075 153° Southeast 448 516 29,200 1,512 Climbing Oakland Center
Thu 03:19:33 PM 37.8994 -120.4322 153° Southeast 457 526 31,000 1,854 Climbing Oakland Center
Thu 03:20:35 PM 37.7822 -120.3556 153° Southeast 470 541 33,000 1,951 Climbing Oakland Center
Thu 03:21:36 PM 37.6664 -120.2806 153° Southeast 468 539 35,000 1,756 Climbing Oakland Center
Thu 03:22:38 PM 37.5514 -120.2067 153° Southeast 463 533 36,600 1,317 Climbing Oakland Center
Thu 03:23:39 PM 37.4331 -120.1347 154° Southeast 475 547 37,700 1,180 Climbing Oakland Center
Thu 03:24:40 PM 37.3169 -120.0592 153° Southeast 466 536 39,000 634 Climbing Oakland Center
Thu 03:25:42 PM 37.2017 -119.9844 153° Southeast 464 534 39,000  Level Oakland Center
Thu 03:26:43 PM 37.0711 -119.8992 152° Southeast 458 527 39,000  Level Oakland Center
Thu 03:27:46 PM 36.9583 -119.8267 153° Southeast 454 522 39,000  Level Oakland Center
Thu 03:28:46 PM 36.8461 -119.7539 153° Southeast 454 522 39,000  Level Oakland Center
Thu 03:29:48 PM 36.7336 -119.6844 154° Southeast 451 519 39,000  Level Oakland Center
Thu 03:30:49 PM 36.6206 -119.6100 152° Southeast 458 527 39,000  Level Oakland Center
Thu 03:31:51 PM 36.5086 -119.5386 153° Southeast 452 520 39,000  Level Oakland Center
Thu 03:32:52 PM 36.3958 -119.4669 153° Southeast 453 521 39,000  Level Oakland Center
Thu 03:33:53 PM 36.2822 -119.3958 153° Southeast 455 524 39,000  Level Oakland Center
Thu 03:34:55 PM 36.1469 -119.3117 153° Southeast 452 520 39,000  Level Oakland Center
Thu 03:35:56 PM 36.0317 -119.2400 153° Southeast 462 532 39,000 -244 Level Oakland Center
Thu 03:36:58 PM 35.9189 -119.1728 154° Southeast 449 517 38,500 -732 Descending Oakland Center
Thu 03:37:59 PM 35.8064 -119.1019 153° Southeast 451 519 37,500 -927 Descending Oakland Center
Thu 03:39:01 PM 35.6883 -119.0281 153° Southeast 467 537 36,600 -911 Descending Oakland Center
Thu 03:39:51 PM 35.5911 -118.9686 154° Southeast 475 547 35,800 -1,071 Descending Los Angeles Center
Thu 03:40:53 PM 35.4744 -118.8978 154° Southeast 469 540 34,600 -1,258 Descending Los Angeles Center
Thu 03:41:55 PM 35.3589 -118.8283 154° Southeast 464 534 33,200 -1,306 Descending Los Angeles Center
Thu 03:42:57 PM 35.2219 -118.7447 153° Southeast 458 527 31,900 -1,065 Descending Los Angeles Center
Thu 03:43:59 PM 35.1125 -118.6775 153° Southeast 443 510 31,000 -532 Descending Los Angeles Center
Thu 03:45:01 PM 35.0086 -118.6064 151° Southeast 432 497 30,800 -960 Descending Los Angeles Center
Thu 03:46:04 PM 34.9303 -118.4975 131° Southeast 428 493 29,000 -1,824 Descending Los Angeles Center
Thu 03:47:06 PM 34.8528 -118.3842 130° Southeast 420 483 27,000 -1,935 Descending Los Angeles Center
Thu 03:48:08 PM 34.7786 -118.2767 130° Southeast 417 480 25,000 -1,645 Descending Los Angeles Center
Thu 03:49:10 PM 34.7067 -118.1728 130° Southeast 408 470 23,600 -1,355 Descending Los Angeles Center
Thu 03:50:12 PM 34.6233 -118.0497 129° Southeast 396 456 22,200 -1,548 Descending Los Angeles Center
Thu 03:51:14 PM 34.5731 -117.9372 118° Southeast 382 440 20,400 -1,694 Descending Los Angeles Center
Thu 03:52:16 PM 34.5236 -117.8294 119° Southeast 370 426 18,700 -1,645 Descending Los Angeles Center
Thu 03:53:18 PM 34.4764 -117.7269 119° Southeast 353 406 17,000 -1,680 Descending Los Angeles Center
Thu 03:54:21 PM 34.4297 -117.6256 119° Southeast 346 398 15,200 -1,584 Descending Los Angeles Center
Thu 03:55:23 PM 34.3789 -117.5147 119° Southeast 329 379 13,700 -1,258 Descending Los Angeles Center
Thu 03:56:25 PM 34.3375 -117.4228 119° Southeast 312 359 12,600 -1,500 Descending Los Angeles Center
Thu 03:57:27 PM 34.2914 -117.3386 124° Southeast 302 348 10,600 -1,887 Descending Los Angeles Center
Thu 03:58:29 PM 34.2092 -117.3136 166° South 292 336 8,700 -1,355 Descending Los Angeles Center
Thu 03:59:31 PM 34.1153 -117.2872 167° South 280 322 7,800 -1,027 Descending Los Angeles Center
Thu 04:00:20 PM 34.0833 -117.3333 230° Southwest 209 241 6,800 -1,156 Descending Southern California TRACON
Thu 04:01:20 PM 34.0500 -117.3833 231° Southwest 169 194 5,700 -1,300 Descending Southern California TRACON
Thu 04:02:20 PM 34.0500 -117.4333 270° West 134 154 4,200 -1,450 Descending Southern California TRACON
Thu 04:03:20 PM 34.0500 -117.4667 270° West 130 150 2,800 -1,100 Descending Southern California TRACON
Thu 04:04:20 PM 34.0500 -117.5167 270° West 132 152 2,000 -750 Descending Southern California TRACON
Thu 04:05:20 PM 34.0500 -117.5667 270° West 133 153 1,300 -700 Descending Southern California TRACON
Thu 04:07:00 PM 34.0500 -117.6000 270° West  Level FlightAware Approximate
Thu 04:14:00 PM 34.0560 -117.6012 270° West  Level Estimated

Login

Don't have an account? Register now (free) for customized features, flight alerts, and more!